sensor_id;sensor_type;location;lat;lon;timestamp;P1;durP1;ratioP1;P2;durP2;ratioP2
6679;SDS011;3376;42.664;23.346;2022-07-10T00:00:12;13.13;;;12.40;;
6679;SDS011;3376;42.664;23.346;2022-07-10T00:02:42;13.67;;;13.00;;
6679;SDS011;3376;42.664;23.346;2022-07-10T00:05:10;13.47;;;12.70;;
6679;SDS011;3376;42.664;23.346;2022-07-10T00:07:37;13.07;;;12.47;;
6679;SDS011;3376;42.664;23.346;2022-07-10T00:10:06;13.50;;;12.50;;
6679;SDS011;3376;42.664;23.346;2022-07-10T00:12:33;13.87;;;13.07;;
6679;SDS011;3376;42.664;23.346;2022-07-10T00:15:00;13.53;;;12.70;;
6679;SDS011;3376;42.664;23.346;2022-07-10T00:17:26;13.60;;;12.67;;
6679;SDS011;3376;42.664;23.346;2022-07-10T00:19:54;13.80;;;12.73;;
6679;SDS011;3376;42.664;23.346;2022-07-10T00:22:20;13.60;;;12.90;;
6679;SDS011;3376;42.664;23.346;2022-07-10T00:24:47;13.10;;;12.60;;
6679;SDS011;3376;42.664;23.346;2022-07-10T00:27:17;13.07;;;12.17;;
6679;SDS011;3376;42.664;23.346;2022-07-10T00:29:44;13.53;;;12.83;;
6679;SDS011;3376;42.664;23.346;2022-07-10T00:32:11;14.10;;;13.30;;
6679;SDS011;3376;42.664;23.346;2022-07-10T00:34:38;14.00;;;12.83;;
6679;SDS011;3376;42.664;23.346;2022-07-10T00:37:05;13.03;;;12.43;;
6679;SDS011;3376;42.664;23.346;2022-07-10T00:39:32;12.77;;;12.23;;
6679;SDS011;3376;42.664;23.346;2022-07-10T00:42:05;13.23;;;12.33;;
6679;SDS011;3376;42.664;23.346;2022-07-10T00:44:34;13.23;;;12.63;;
6679;SDS011;3376;42.664;23.346;2022-07-10T00:47:02;13.27;;;12.40;;
6679;SDS011;3376;42.664;23.346;2022-07-10T00:49:29;14.67;;;13.67;;
6679;SDS011;3376;42.664;23.346;2022-07-10T00:51:56;15.13;;;14.17;;
6679;SDS011;3376;42.664;23.346;2022-07-10T00:54:25;13.07;;;12.57;;
6679;SDS011;3376;42.664;23.346;2022-07-10T00:56:53;13.40;;;12.70;;
6679;SDS011;3376;42.664;23.346;2022-07-10T00:59:21;14.83;;;13.57;;
6679;SDS011;3376;42.664;23.346;2022-07-10T01:01:50;13.07;;;12.57;;
6679;SDS011;3376;42.664;23.346;2022-07-10T01:04:17;13.57;;;12.87;;
6679;SDS011;3376;42.664;23.346;2022-07-10T01:06:44;13.63;;;13.03;;
6679;SDS011;3376;42.664;23.346;2022-07-10T01:09:11;14.20;;;12.90;;
6679;SDS011;3376;42.664;23.346;2022-07-10T01:11:38;13.23;;;12.53;;
6679;SDS011;3376;42.664;23.346;2022-07-10T01:14:05;13.10;;;12.50;;
6679;SDS011;3376;42.664;23.346;2022-07-10T01:16:32;14.17;;;13.27;;
6679;SDS011;3376;42.664;23.346;2022-07-10T01:19:02;13.07;;;12.57;;
6679;SDS011;3376;42.664;23.346;2022-07-10T01:21:31;12.43;;;11.93;;
6679;SDS011;3376;42.664;23.346;2022-07-10T01:23:59;12.33;;;11.70;;
6679;SDS011;3376;42.664;23.346;2022-07-10T01:26:29;12.97;;;12.30;;
6679;SDS011;3376;42.664;23.346;2022-07-10T01:28:57;13.33;;;12.53;;
6679;SDS011;3376;42.664;23.346;2022-07-10T01:31:27;12.67;;;12.17;;
6679;SDS011;3376;42.664;23.346;2022-07-10T01:33:54;13.23;;;12.33;;
6679;SDS011;3376;42.664;23.346;2022-07-10T01:36:22;12.73;;;11.90;;
6679;SDS011;3376;42.664;23.346;2022-07-10T01:38:52;13.07;;;12.30;;
6679;SDS011;3376;42.664;23.346;2022-07-10T01:41:19;12.03;;;11.30;;
6679;SDS011;3376;42.664;23.346;2022-07-10T01:43:46;12.30;;;11.73;;
6679;SDS011;3376;42.664;23.346;2022-07-10T01:46:13;12.57;;;12.07;;
6679;SDS011;3376;42.664;23.346;2022-07-10T01:48:41;12.67;;;12.07;;
6679;SDS011;3376;42.664;23.346;2022-07-10T01:51:09;12.73;;;12.13;;
6679;SDS011;3376;42.664;23.346;2022-07-10T01:53:37;11.83;;;11.37;;
6679;SDS011;3376;42.664;23.346;2022-07-10T01:56:07;11.77;;;11.17;;
6679;SDS011;3376;42.664;23.346;2022-07-10T01:58:35;11.73;;;10.93;;
6679;SDS011;3376;42.664;23.346;2022-07-10T02:01:03;12.40;;;11.73;;
6679;SDS011;3376;42.664;23.346;2022-07-10T02:03:30;15.77;;;11.90;;
6679;SDS011;3376;42.664;23.346;2022-07-10T02:06:15;12.37;;;11.57;;
6679;SDS011;3376;42.664;23.346;2022-07-10T02:08:42;11.53;;;10.93;;
6679;SDS011;3376;42.664;23.346;2022-07-10T02:11:10;12.73;;;12.17;;
6679;SDS011;3376;42.664;23.346;2022-07-10T02:13:37;12.30;;;11.70;;
6679;SDS011;3376;42.664;23.346;2022-07-10T02:16:05;11.73;;;11.13;;
6679;SDS011;3376;42.664;23.346;2022-07-10T02:18:32;12.30;;;11.50;;
6679;SDS011;3376;42.664;23.346;2022-07-10T02:20:59;10.97;;;10.37;;
6679;SDS011;3376;42.664;23.346;2022-07-10T02:23:25;11.23;;;10.83;;
6679;SDS011;3376;42.664;23.346;2022-07-10T02:25:53;12.43;;;11.83;;
6679;SDS011;3376;42.664;23.346;2022-07-10T02:28:21;11.87;;;11.37;;
6679;SDS011;3376;42.664;23.346;2022-07-10T02:30:48;12.17;;;11.47;;
6679;SDS011;3376;42.664;23.346;2022-07-10T02:33:15;12.73;;;11.67;;
6679;SDS011;3376;42.664;23.346;2022-07-10T02:35:42;12.00;;;11.37;;
6679;SDS011;3376;42.664;23.346;2022-07-10T02:38:09;12.00;;;11.43;;
6679;SDS011;3376;42.664;23.346;2022-07-10T02:40:35;11.97;;;11.43;;
6679;SDS011;3376;42.664;23.346;2022-07-10T02:43:02;12.50;;;12.00;;
6679;SDS011;3376;42.664;23.346;2022-07-10T02:45:30;11.93;;;11.50;;
6679;SDS011;3376;42.664;23.346;2022-07-10T02:47:57;13.90;;;13.27;;
6679;SDS011;3376;42.664;23.346;2022-07-10T02:50:24;11.63;;;11.03;;
6679;SDS011;3376;42.664;23.346;2022-07-10T02:52:51;13.33;;;12.63;;
6679;SDS011;3376;42.664;23.346;2022-07-10T02:55:18;12.67;;;11.73;;
6679;SDS011;3376;42.664;23.346;2022-07-10T02:57:45;12.13;;;11.53;;
6679;SDS011;3376;42.664;23.346;2022-07-10T03:00:12;11.63;;;11.13;;
6679;SDS011;3376;42.664;23.346;2022-07-10T03:02:40;11.83;;;11.30;;
6679;SDS011;3376;42.664;23.346;2022-07-10T03:05:08;11.67;;;11.07;;
6679;SDS011;3376;42.664;23.346;2022-07-10T03:07:35;11.53;;;10.77;;
6679;SDS011;3376;42.664;23.346;2022-07-10T03:10:02;11.23;;;10.73;;
6679;SDS011;3376;42.664;23.346;2022-07-10T03:12:29;11.97;;;11.17;;
6679;SDS011;3376;42.664;23.346;2022-07-10T03:14:56;11.50;;;11.00;;
6679;SDS011;3376;42.664;23.346;2022-07-10T03:17:24;11.20;;;10.63;;
6679;SDS011;3376;42.664;23.346;2022-07-10T03:19:53;11.33;;;10.73;;
6679;SDS011;3376;42.664;23.346;2022-07-10T03:22:21;11.73;;;10.93;;
6679;SDS011;3376;42.664;23.346;2022-07-10T03:24:47;10.33;;;9.93;;
6679;SDS011;3376;42.664;23.346;2022-07-10T03:27:14;11.33;;;10.80;;
6679;SDS011;3376;42.664;23.346;2022-07-10T03:29:41;11.37;;;10.77;;
6679;SDS011;3376;42.664;23.346;2022-07-10T03:32:08;10.43;;;9.93;;
6679;SDS011;3376;42.664;23.346;2022-07-10T03:34:35;10.80;;;10.40;;
6679;SDS011;3376;42.664;23.346;2022-07-10T03:37:04;10.00;;;9.47;;
6679;SDS011;3376;42.664;23.346;2022-07-10T03:39:31;11.37;;;10.77;;
6679;SDS011;3376;42.664;23.346;2022-07-10T03:41:58;11.83;;;11.13;;
6679;SDS011;3376;42.664;23.346;2022-07-10T03:44:25;11.33;;;10.83;;
6679;SDS011;3376;42.664;23.346;2022-07-10T03:46:52;10.63;;;10.23;;
6679;SDS011;3376;42.664;23.346;2022-07-10T03:49:19;10.93;;;10.50;;
6679;SDS011;3376;42.664;23.346;2022-07-10T03:51:46;11.47;;;10.67;;
6679;SDS011;3376;42.664;23.346;2022-07-10T03:54:14;11.50;;;10.87;;
6679;SDS011;3376;42.664;23.346;2022-07-10T03:56:41;10.87;;;10.47;;
6679;SDS011;3376;42.664;23.346;2022-07-10T03:59:25;10.50;;;9.73;;
6679;SDS011;3376;42.664;23.346;2022-07-10T04:01:52;10.33;;;9.70;;
6679;SDS011;3376;42.664;23.346;2022-07-10T04:04:19;10.77;;;10.07;;
6679;SDS011;3376;42.664;23.346;2022-07-10T04:06:47;10.23;;;9.73;;
6679;SDS011;3376;42.664;23.346;2022-07-10T04:09:15;10.13;;;9.37;;
6679;SDS011;3376;42.664;23.346;2022-07-10T04:11:42;10.53;;;10.10;;
6679;SDS011;3376;42.664;23.346;2022-07-10T04:14:09;11.33;;;10.93;;
6679;SDS011;3376;42.664;23.346;2022-07-10T04:16:36;11.23;;;10.67;;
6679;SDS011;3376;42.664;23.346;2022-07-10T04:19:03;10.10;;;9.60;;
6679;SDS011;3376;42.664;23.346;2022-07-10T04:21:29;9.87;;;9.47;;
6679;SDS011;3376;42.664;23.346;2022-07-10T04:23:56;11.03;;;10.37;;
6679;SDS011;3376;42.664;23.346;2022-07-10T04:26:24;10.33;;;9.53;;
6679;SDS011;3376;42.664;23.346;2022-07-10T04:28:51;10.33;;;9.77;;
6679;SDS011;3376;42.664;23.346;2022-07-10T04:31:18;9.93;;;9.43;;
6679;SDS011;3376;42.664;23.346;2022-07-10T04:33:45;9.60;;;9.17;;
6679;SDS011;3376;42.664;23.346;2022-07-10T04:36:12;10.00;;;9.17;;
6679;SDS011;3376;42.664;23.346;2022-07-10T04:38:39;9.60;;;9.17;;
6679;SDS011;3376;42.664;23.346;2022-07-10T04:41:06;9.57;;;9.13;;
6679;SDS011;3376;42.664;23.346;2022-07-10T04:43:34;9.13;;;8.73;;
6679;SDS011;3376;42.664;23.346;2022-07-10T04:46:01;9.17;;;8.77;;
6679;SDS011;3376;42.664;23.346;2022-07-10T04:48:28;10.03;;;9.40;;
6679;SDS011;3376;42.664;23.346;2022-07-10T04:50:55;9.30;;;8.80;;
6679;SDS011;3376;42.664;23.346;2022-07-10T04:53:23;8.40;;;8.00;;
6679;SDS011;3376;42.664;23.346;2022-07-10T04:55:50;9.37;;;8.70;;
6679;SDS011;3376;42.664;23.346;2022-07-10T04:58:16;8.17;;;7.73;;
6679;SDS011;3376;42.664;23.346;2022-07-10T05:00:45;7.97;;;7.67;;
6679;SDS011;3376;42.664;23.346;2022-07-10T05:03:11;8.63;;;8.07;;
6679;SDS011;3376;42.664;23.346;2022-07-10T05:05:41;7.87;;;7.30;;
6679;SDS011;3376;42.664;23.346;2022-07-10T05:08:08;8.00;;;7.60;;
6679;SDS011;3376;42.664;23.346;2022-07-10T05:10:35;8.23;;;7.83;;
6679;SDS011;3376;42.664;23.346;2022-07-10T05:13:02;7.80;;;7.50;;
6679;SDS011;3376;42.664;23.346;2022-07-10T05:15:29;7.93;;;7.60;;
6679;SDS011;3376;42.664;23.346;2022-07-10T05:17:57;8.27;;;7.80;;
6679;SDS011;3376;42.664;23.346;2022-07-10T05:20:24;8.03;;;7.40;;
6679;SDS011;3376;42.664;23.346;2022-07-10T05:22:51;8.13;;;7.63;;
6679;SDS011;3376;42.664;23.346;2022-07-10T05:25:17;8.03;;;7.73;;
6679;SDS011;3376;42.664;23.346;2022-07-10T05:27:44;7.27;;;6.97;;
6679;SDS011;3376;42.664;23.346;2022-07-10T05:30:11;8.23;;;7.83;;
6679;SDS011;3376;42.664;23.346;2022-07-10T05:32:42;8.47;;;7.77;;
6679;SDS011;3376;42.664;23.346;2022-07-10T05:35:11;8.33;;;7.67;;
6679;SDS011;3376;42.664;23.346;2022-07-10T05:37:38;8.40;;;7.90;;
6679;SDS011;3376;42.664;23.346;2022-07-10T05:40:05;7.37;;;7.17;;
6679;SDS011;3376;42.664;23.346;2022-07-10T05:42:33;8.00;;;7.60;;
6679;SDS011;3376;42.664;23.346;2022-07-10T05:45:00;7.60;;;7.10;;
6679;SDS011;3376;42.664;23.346;2022-07-10T05:47:27;7.40;;;7.10;;
6679;SDS011;3376;42.664;23.346;2022-07-10T05:49:54;8.13;;;7.73;;
6679;SDS011;3376;42.664;23.346;2022-07-10T05:52:22;7.87;;;7.57;;
6679;SDS011;3376;42.664;23.346;2022-07-10T05:54:49;7.23;;;6.90;;
6679;SDS011;3376;42.664;23.346;2022-07-10T05:57:17;8.47;;;8.07;;
6679;SDS011;3376;42.664;23.346;2022-07-10T05:59:43;7.70;;;7.00;;
6679;SDS011;3376;42.664;23.346;2022-07-10T06:02:10;6.73;;;6.33;;
6679;SDS011;3376;42.664;23.346;2022-07-10T06:04:37;6.33;;;6.03;;
6679;SDS011;3376;42.664;23.346;2022-07-10T06:07:04;6.40;;;6.10;;
6679;SDS011;3376;42.664;23.346;2022-07-10T06:09:32;5.80;;;5.60;;
6679;SDS011;3376;42.664;23.346;2022-07-10T06:11:59;6.43;;;5.83;;
6679;SDS011;3376;42.664;23.346;2022-07-10T06:14:26;6.30;;;5.80;;
6679;SDS011;3376;42.664;23.346;2022-07-10T06:16:53;6.50;;;6.00;;
6679;SDS011;3376;42.664;23.346;2022-07-10T06:19:20;5.77;;;5.33;;
6679;SDS011;3376;42.664;23.346;2022-07-10T06:21:47;5.93;;;5.43;;
6679;SDS011;3376;42.664;23.346;2022-07-10T06:24:35;6.33;;;6.10;;
6679;SDS011;3376;42.664;23.346;2022-07-10T06:27:02;6.07;;;5.23;;
6679;SDS011;3376;42.664;23.346;2022-07-10T06:29:29;5.87;;;5.57;;
6679;SDS011;3376;42.664;23.346;2022-07-10T06:31:56;5.77;;;5.47;;
6679;SDS011;3376;42.664;23.346;2022-07-10T06:34:23;5.70;;;5.20;;
6679;SDS011;3376;42.664;23.346;2022-07-10T06:36:50;5.63;;;5.33;;
6679;SDS011;3376;42.664;23.346;2022-07-10T06:39:17;5.67;;;5.23;;
6679;SDS011;3376;42.664;23.346;2022-07-10T06:41:45;7.77;;;5.53;;
6679;SDS011;3376;42.664;23.346;2022-07-10T06:44:12;5.70;;;5.17;;
6679;SDS011;3376;42.664;23.346;2022-07-10T06:46:39;5.33;;;5.13;;
6679;SDS011;3376;42.664;23.346;2022-07-10T06:49:06;5.10;;;4.90;;
6679;SDS011;3376;42.664;23.346;2022-07-10T06:51:34;5.07;;;4.67;;
6679;SDS011;3376;42.664;23.346;2022-07-10T06:54:02;5.07;;;4.77;;
6679;SDS011;3376;42.664;23.346;2022-07-10T06:56:29;5.40;;;5.20;;
6679;SDS011;3376;42.664;23.346;2022-07-10T06:58:57;4.87;;;4.67;;
6679;SDS011;3376;42.664;23.346;2022-07-10T07:01:24;5.40;;;5.10;;
6679;SDS011;3376;42.664;23.346;2022-07-10T07:03:51;5.83;;;5.33;;
6679;SDS011;3376;42.664;23.346;2022-07-10T07:06:18;4.87;;;4.30;;
6679;SDS011;3376;42.664;23.346;2022-07-10T07:08:45;5.33;;;4.83;;
6679;SDS011;3376;42.664;23.346;2022-07-10T07:11:12;4.53;;;4.23;;
6679;SDS011;3376;42.664;23.346;2022-07-10T07:13:39;5.20;;;4.80;;
6679;SDS011;3376;42.664;23.346;2022-07-10T07:16:07;4.30;;;4.20;;
6679;SDS011;3376;42.664;23.346;2022-07-10T07:18:35;4.73;;;4.50;;
6679;SDS011;3376;42.664;23.346;2022-07-10T07:21:12;4.63;;;4.37;;
6679;SDS011;3376;42.664;23.346;2022-07-10T07:23:56;4.23;;;4.07;;
6679;SDS011;3376;42.664;23.346;2022-07-10T07:26:23;4.47;;;4.17;;
6679;SDS011;3376;42.664;23.346;2022-07-10T07:28:50;3.93;;;3.83;;
6679;SDS011;3376;42.664;23.346;2022-07-10T07:31:18;5.20;;;5.00;;
6679;SDS011;3376;42.664;23.346;2022-07-10T07:33:45;5.00;;;4.70;;
6679;SDS011;3376;42.664;23.346;2022-07-10T07:36:12;4.97;;;4.57;;
6679;SDS011;3376;42.664;23.346;2022-07-10T07:38:39;5.07;;;4.60;;
6679;SDS011;3376;42.664;23.346;2022-07-10T07:41:05;4.57;;;4.37;;
6679;SDS011;3376;42.664;23.346;2022-07-10T07:43:34;4.40;;;4.20;;
6679;SDS011;3376;42.664;23.346;2022-07-10T07:46:00;4.50;;;4.20;;
6679;SDS011;3376;42.664;23.346;2022-07-10T07:48:29;6.90;;;3.87;;
6679;SDS011;3376;42.664;23.346;2022-07-10T07:50:56;4.30;;;4.00;;
6679;SDS011;3376;42.664;23.346;2022-07-10T07:53:23;4.37;;;4.00;;
6679;SDS011;3376;42.664;23.346;2022-07-10T07:55:50;5.93;;;4.30;;
6679;SDS011;3376;42.664;23.346;2022-07-10T07:58:17;4.23;;;3.97;;
6679;SDS011;3376;42.664;23.346;2022-07-10T08:00:44;5.13;;;4.10;;
6679;SDS011;3376;42.664;23.346;2022-07-10T08:03:11;4.57;;;4.17;;
6679;SDS011;3376;42.664;23.346;2022-07-10T08:05:39;4.47;;;4.00;;
6679;SDS011;3376;42.664;23.346;2022-07-10T08:08:06;4.10;;;3.87;;
6679;SDS011;3376;42.664;23.346;2022-07-10T08:10:33;3.83;;;3.53;;
6679;SDS011;3376;42.664;23.346;2022-07-10T08:13:00;3.70;;;3.40;;
6679;SDS011;3376;42.664;23.346;2022-07-10T08:15:28;4.20;;;3.90;;
6679;SDS011;3376;42.664;23.346;2022-07-10T08:17:56;3.80;;;3.63;;
6679;SDS011;3376;42.664;23.346;2022-07-10T08:20:24;4.10;;;3.63;;
6679;SDS011;3376;42.664;23.346;2022-07-10T08:22:53;3.83;;;3.60;;
6679;SDS011;3376;42.664;23.346;2022-07-10T08:25:20;3.67;;;3.57;;
6679;SDS011;3376;42.664;23.346;2022-07-10T08:27:47;3.70;;;3.40;;
6679;SDS011;3376;42.664;23.346;2022-07-10T08:30:14;3.23;;;3.03;;
6679;SDS011;3376;42.664;23.346;2022-07-10T08:32:41;4.82;;;3.20;;
6679;SDS011;3376;42.664;23.346;2022-07-10T08:35:08;3.70;;;3.43;;
6679;SDS011;3376;42.664;23.346;2022-07-10T08:37:37;3.87;;;3.07;;
6679;SDS011;3376;42.664;23.346;2022-07-10T08:40:07;3.57;;;3.27;;
6679;SDS011;3376;42.664;23.346;2022-07-10T08:42:35;4.18;;;3.22;;
6679;SDS011;3376;42.664;23.346;2022-07-10T08:45:03;3.42;;;3.30;;
6679;SDS011;3376;42.664;23.346;2022-07-10T08:47:30;3.20;;;3.10;;
6679;SDS011;3376;42.664;23.346;2022-07-10T08:50:00;3.42;;;3.33;;
6679;SDS011;3376;42.664;23.346;2022-07-10T08:52:30;2.95;;;2.85;;
6679;SDS011;3376;42.664;23.346;2022-07-10T08:55:00;2.70;;;2.58;;
6679;SDS011;3376;42.664;23.346;2022-07-10T08:57:28;3.03;;;2.80;;
6679;SDS011;3376;42.664;23.346;2022-07-10T08:59:57;2.70;;;2.60;;
6679;SDS011;3376;42.664;23.346;2022-07-10T09:02:24;3.10;;;3.00;;
6679;SDS011;3376;42.664;23.346;2022-07-10T09:04:51;3.15;;;2.95;;
6679;SDS011;3376;42.664;23.346;2022-07-10T09:07:21;3.42;;;3.17;;
6679;SDS011;3376;42.664;23.346;2022-07-10T09:09:51;3.40;;;3.10;;
6679;SDS011;3376;42.664;23.346;2022-07-10T09:12:21;3.38;;;3.22;;
6679;SDS011;3376;42.664;23.346;2022-07-10T09:14:52;3.10;;;3.00;;
6679;SDS011;3376;42.664;23.346;2022-07-10T09:17:19;3.15;;;2.95;;
6679;SDS011;3376;42.664;23.346;2022-07-10T09:19:46;3.42;;;3.13;;
6679;SDS011;3376;42.664;23.346;2022-07-10T09:22:13;3.63;;;2.75;;
6679;SDS011;3376;42.664;23.346;2022-07-10T09:24:41;3.10;;;3.00;;
6679;SDS011;3376;42.664;23.346;2022-07-10T09:27:10;6.55;;;3.50;;
6679;SDS011;3376;42.664;23.346;2022-07-10T09:29:44;4.35;;;3.25;;
6679;SDS011;3376;42.664;23.346;2022-07-10T09:32:14;2.65;;;2.55;;
6679;SDS011;3376;42.664;23.346;2022-07-10T09:34:42;3.13;;;2.92;;
6679;SDS011;3376;42.664;23.346;2022-07-10T09:37:17;4.05;;;2.97;;
6679;SDS011;3376;42.664;23.346;2022-07-10T09:39:51;3.15;;;3.05;;
6679;SDS011;3376;42.664;23.346;2022-07-10T09:42:26;3.00;;;2.90;;
6679;SDS011;3376;42.664;23.346;2022-07-10T09:47:43;2.95;;;2.75;;
6679;SDS011;3376;42.664;23.346;2022-07-10T09:50:20;2.83;;;2.72;;
6679;SDS011;3376;42.664;23.346;2022-07-10T09:52:49;2.92;;;2.75;;
6679;SDS011;3376;42.664;23.346;2022-07-10T09:55:19;3.47;;;2.88;;
6679;SDS011;3376;42.664;23.346;2022-07-10T09:57:53;2.20;;;2.10;;
6679;SDS011;3376;42.664;23.346;2022-07-10T10:00:25;2.60;;;2.50;;
6679;SDS011;3376;42.664;23.346;2022-07-10T10:02:58;2.78;;;2.58;;
6679;SDS011;3376;42.664;23.346;2022-07-10T10:05:30;3.10;;;3.00;;
6679;SDS011;3376;42.664;23.346;2022-07-10T10:08:01;3.30;;;3.00;;
6679;SDS011;3376;42.664;23.346;2022-07-10T10:10:35;2.90;;;2.75;;
6679;SDS011;3376;42.664;23.346;2022-07-10T10:13:05;2.65;;;2.40;;
6679;SDS011;3376;42.664;23.346;2022-07-10T10:15:35;2.78;;;2.58;;
6679;SDS011;3376;42.664;23.346;2022-07-10T10:18:05;4.90;;;2.75;;
6679;SDS011;3376;42.664;23.346;2022-07-10T10:20:33;4.88;;;2.35;;
6679;SDS011;3376;42.664;23.346;2022-07-10T10:23:03;2.70;;;2.50;;
6679;SDS011;3376;42.664;23.346;2022-07-10T10:25:32;2.40;;;2.30;;
6679;SDS011;3376;42.664;23.346;2022-07-10T10:27:59;2.67;;;2.47;;
6679;SDS011;3376;42.664;23.346;2022-07-10T10:30:29;2.35;;;2.13;;
6679;SDS011;3376;42.664;23.346;2022-07-10T10:32:56;2.70;;;2.60;;
6679;SDS011;3376;42.664;23.346;2022-07-10T10:35:45;2.22;;;2.22;;
6679;SDS011;3376;42.664;23.346;2022-07-10T10:38:13;2.58;;;2.33;;
6679;SDS011;3376;42.664;23.346;2022-07-10T10:40:40;2.67;;;2.00;;
6679;SDS011;3376;42.664;23.346;2022-07-10T10:43:17;1.95;;;1.85;;
6679;SDS011;3376;42.664;23.346;2022-07-10T10:45:44;3.17;;;2.65;;
6679;SDS011;3376;42.664;23.346;2022-07-10T10:48:12;2.90;;;2.80;;
6679;SDS011;3376;42.664;23.346;2022-07-10T10:50:41;2.70;;;2.60;;
6679;SDS011;3376;42.664;23.346;2022-07-10T10:53:13;2.42;;;2.20;;
6679;SDS011;3376;42.664;23.346;2022-07-10T10:58:42;2.28;;;2.17;;
6679;SDS011;3376;42.664;23.346;2022-07-10T11:01:23;2.55;;;2.45;;
6679;SDS011;3376;42.664;23.346;2022-07-10T11:06:40;3.88;;;2.38;;
6679;SDS011;3376;42.664;23.346;2022-07-10T11:09:22;2.47;;;2.38;;
6679;SDS011;3376;42.664;23.346;2022-07-10T11:11:57;2.25;;;2.15;;
6679;SDS011;3376;42.664;23.346;2022-07-10T11:14:28;2.55;;;2.30;;
6679;SDS011;3376;42.664;23.346;2022-07-10T11:16:56;2.83;;;2.40;;
6679;SDS011;3376;42.664;23.346;2022-07-10T11:19:24;2.20;;;2.10;;
6679;SDS011;3376;42.664;23.346;2022-07-10T11:21:56;3.88;;;2.42;;
6679;SDS011;3376;42.664;23.346;2022-07-10T11:24:37;2.20;;;2.17;;
6679;SDS011;3376;42.664;23.346;2022-07-10T11:27:12;2.58;;;2.38;;
6679;SDS011;3376;42.664;23.346;2022-07-10T11:29:58;3.60;;;2.45;;
6679;SDS011;3376;42.664;23.346;2022-07-10T11:32:26;2.67;;;2.30;;
6679;SDS011;3376;42.664;23.346;2022-07-10T11:34:53;2.60;;;2.50;;
6679;SDS011;3376;42.664;23.346;2022-07-10T11:37:20;2.40;;;2.30;;
6679;SDS011;3376;42.664;23.346;2022-07-10T11:39:51;2.33;;;2.13;;
6679;SDS011;3376;42.664;23.346;2022-07-10T11:42:46;4.90;;;2.60;;
6679;SDS011;3376;42.664;23.346;2022-07-10T11:45:24;5.03;;;2.30;;
6679;SDS011;3376;42.664;23.346;2022-07-10T11:47:52;2.20;;;2.15;;
6679;SDS011;3376;42.664;23.346;2022-07-10T11:50:19;4.78;;;2.63;;
6679;SDS011;3376;42.664;23.346;2022-07-10T11:52:46;2.85;;;2.75;;
6679;SDS011;3376;42.664;23.346;2022-07-10T11:55:15;2.30;;;2.20;;
6679;SDS011;3376;42.664;23.346;2022-07-10T11:57:43;2.10;;;2.00;;
6679;SDS011;3376;42.664;23.346;2022-07-10T12:00:20;2.30;;;2.20;;
6679;SDS011;3376;42.664;23.346;2022-07-10T12:02:49;2.50;;;2.30;;
6679;SDS011;3376;42.664;23.346;2022-07-10T12:05:32;2.70;;;2.60;;
6679;SDS011;3376;42.664;23.346;2022-07-10T12:08:00;2.35;;;2.05;;
6679;SDS011;3376;42.664;23.346;2022-07-10T12:10:29;2.65;;;2.45;;
6679;SDS011;3376;42.664;23.346;2022-07-10T12:13:03;2.28;;;2.17;;
6679;SDS011;3376;42.664;23.346;2022-07-10T12:15:32;2.08;;;1.98;;
6679;SDS011;3376;42.664;23.346;2022-07-10T12:17:59;2.05;;;1.95;;
6679;SDS011;3376;42.664;23.346;2022-07-10T12:20:26;1.88;;;1.85;;
6679;SDS011;3376;42.664;23.346;2022-07-10T12:22:53;1.77;;;1.67;;
6679;SDS011;3376;42.664;23.346;2022-07-10T12:25:21;2.25;;;2.15;;
6679;SDS011;3376;42.664;23.346;2022-07-10T12:27:50;1.60;;;1.60;;
6679;SDS011;3376;42.664;23.346;2022-07-10T12:30:22;2.20;;;2.10;;
6679;SDS011;3376;42.664;23.346;2022-07-10T12:32:49;2.22;;;2.13;;
6679;SDS011;3376;42.664;23.346;2022-07-10T12:35:16;3.55;;;1.65;;
6679;SDS011;3376;42.664;23.346;2022-07-10T12:37:47;1.88;;;1.70;;
6679;SDS011;3376;42.664;23.346;2022-07-10T12:40:30;2.10;;;1.98;;
6679;SDS011;3376;42.664;23.346;2022-07-10T12:43:04;1.77;;;1.67;;
6679;SDS011;3376;42.664;23.346;2022-07-10T12:45:32;1.85;;;1.75;;
6679;SDS011;3376;42.664;23.346;2022-07-10T12:47:59;1.73;;;1.63;;
6679;SDS011;3376;42.664;23.346;2022-07-10T12:50:29;1.70;;;1.70;;
6679;SDS011;3376;42.664;23.346;2022-07-10T12:53:08;4.85;;;1.60;;
6679;SDS011;3376;42.664;23.346;2022-07-10T12:55:36;2.88;;;1.70;;
6679;SDS011;3376;42.664;23.346;2022-07-10T12:58:08;1.90;;;1.80;;
6679;SDS011;3376;42.664;23.346;2022-07-10T13:00:42;1.70;;;1.70;;
6679;SDS011;3376;42.664;23.346;2022-07-10T13:03:10;1.80;;;1.70;;
6679;SDS011;3376;42.664;23.346;2022-07-10T13:05:43;3.47;;;1.42;;
6679;SDS011;3376;42.664;23.346;2022-07-10T13:08:11;2.00;;;1.90;;
6679;SDS011;3376;42.664;23.346;2022-07-10T13:10:41;1.40;;;1.40;;
6679;SDS011;3376;42.664;23.346;2022-07-10T13:13:10;1.52;;;1.40;;
6679;SDS011;3376;42.664;23.346;2022-07-10T13:15:37;2.30;;;1.02;;
6679;SDS011;3376;42.664;23.346;2022-07-10T13:18:12;0.98;;;0.95;;
6679;SDS011;3376;42.664;23.346;2022-07-10T13:20:42;1.27;;;1.17;;
6679;SDS011;3376;42.664;23.346;2022-07-10T13:23:09;2.50;;;0.90;;
6679;SDS011;3376;42.664;23.346;2022-07-10T13:25:36;1.20;;;1.10;;
6679;SDS011;3376;42.664;23.346;2022-07-10T13:28:04;1.38;;;1.38;;
6679;SDS011;3376;42.664;23.346;2022-07-10T13:30:33;1.42;;;1.27;;
6679;SDS011;3376;42.664;23.346;2022-07-10T13:33:00;1.42;;;1.23;;
6679;SDS011;3376;42.664;23.346;2022-07-10T13:35:27;0.95;;;0.95;;
6679;SDS011;3376;42.664;23.346;2022-07-10T13:37:55;3.05;;;1.25;;
6679;SDS011;3376;42.664;23.346;2022-07-10T13:40:24;1.40;;;1.30;;
6679;SDS011;3376;42.664;23.346;2022-07-10T13:42:51;2.60;;;1.30;;
6679;SDS011;3376;42.664;23.346;2022-07-10T13:45:19;0.85;;;0.85;;
6679;SDS011;3376;42.664;23.346;2022-07-10T13:47:47;1.00;;;1.00;;
6679;SDS011;3376;42.664;23.346;2022-07-10T13:50:14;1.23;;;1.23;;
6679;SDS011;3376;42.664;23.346;2022-07-10T13:52:41;4.43;;;1.30;;
6679;SDS011;3376;42.664;23.346;2022-07-10T13:55:09;1.80;;;1.25;;
6679;SDS011;3376;42.664;23.346;2022-07-10T13:57:37;1.60;;;0.95;;
6679;SDS011;3376;42.664;23.346;2022-07-10T14:00:04;2.38;;;1.50;;
6679;SDS011;3376;42.664;23.346;2022-07-10T14:02:32;1.60;;;1.00;;
6679;SDS011;3376;42.664;23.346;2022-07-10T14:05:01;1.10;;;1.10;;
6679;SDS011;3376;42.664;23.346;2022-07-10T14:07:27;0.85;;;0.85;;
6679;SDS011;3376;42.664;23.346;2022-07-10T14:09:54;1.10;;;1.10;;
6679;SDS011;3376;42.664;23.346;2022-07-10T14:12:23;1.35;;;0.95;;
6679;SDS011;3376;42.664;23.346;2022-07-10T14:14:50;1.17;;;1.08;;
6679;SDS011;3376;42.664;23.346;2022-07-10T14:17:17;2.45;;;1.27;;
6679;SDS011;3376;42.664;23.346;2022-07-10T14:19:43;3.20;;;1.10;;
6679;SDS011;3376;42.664;23.346;2022-07-10T14:22:12;2.83;;;1.10;;
6679;SDS011;3376;42.664;23.346;2022-07-10T14:24:39;2.58;;;1.25;;
6679;SDS011;3376;42.664;23.346;2022-07-10T14:27:06;4.35;;;1.33;;
6679;SDS011;3376;42.664;23.346;2022-07-10T14:29:33;1.52;;;1.10;;
6679;SDS011;3376;42.664;23.346;2022-07-10T14:31:59;1.30;;;1.20;;
6679;SDS011;3376;42.664;23.346;2022-07-10T14:34:26;1.53;;;1.27;;
6679;SDS011;3376;42.664;23.346;2022-07-10T14:36:54;0.90;;;0.90;;
6679;SDS011;3376;42.664;23.346;2022-07-10T14:39:22;2.23;;;1.10;;
6679;SDS011;3376;42.664;23.346;2022-07-10T14:41:49;4.40;;;1.20;;
6679;SDS011;3376;42.664;23.346;2022-07-10T14:44:16;1.37;;;1.20;;
6679;SDS011;3376;42.664;23.346;2022-07-10T14:46:43;3.47;;;1.17;;
6679;SDS011;3376;42.664;23.346;2022-07-10T14:49:09;1.13;;;1.13;;
6679;SDS011;3376;42.664;23.346;2022-07-10T14:51:36;2.87;;;1.07;;
6679;SDS011;3376;42.664;23.346;2022-07-10T14:54:04;1.43;;;1.17;;
6679;SDS011;3376;42.664;23.346;2022-07-10T14:56:32;1.33;;;1.10;;
6679;SDS011;3376;42.664;23.346;2022-07-10T14:58:59;1.20;;;1.10;;
6679;SDS011;3376;42.664;23.346;2022-07-10T15:01:26;1.70;;;1.07;;
6679;SDS011;3376;42.664;23.346;2022-07-10T15:03:54;1.23;;;1.23;;
6679;SDS011;3376;42.664;23.346;2022-07-10T15:06:23;1.87;;;1.40;;
6679;SDS011;3376;42.664;23.346;2022-07-10T15:08:50;1.03;;;0.97;;